createdAt,value
2017-06-04T00:02:03.592Z,19.6
2017-06-04T00:07:02.972Z,19.6
2017-06-04T00:12:03.371Z,19.6
2017-06-04T00:17:03.476Z,19.6
2017-06-04T00:22:03.287Z,19.6
2017-06-04T00:27:03.574Z,19.6
2017-06-04T00:32:02.814Z,19.6
2017-06-04T00:37:03.123Z,19.6
2017-06-04T00:42:02.880Z,19.6
2017-06-04T00:47:03.135Z,19.6
2017-06-04T00:52:03.363Z,19.6
2017-06-04T00:57:02.648Z,19.6
2017-06-04T01:02:02.926Z,19.5
2017-06-04T01:07:03.319Z,19.5
2017-06-04T01:12:02.725Z,19.5
2017-06-04T01:17:03.333Z,19.5
2017-06-04T01:22:03.187Z,19.5
2017-06-04T01:27:03.294Z,19.4
2017-06-04T01:32:03.810Z,19.4
2017-06-04T01:37:02.744Z,19.4
2017-06-04T01:42:03.037Z,19.4
2017-06-04T01:47:03.268Z,19.4
2017-06-04T01:52:03.276Z,19.4
2017-06-04T01:57:03.377Z,19.4
2017-06-04T02:02:02.728Z,19.4
2017-06-04T02:07:02.989Z,19.4
2017-06-04T02:12:03.154Z,19.4
2017-06-04T02:17:03.404Z,19.3
2017-06-04T02:22:03.382Z,19.3
2017-06-04T02:27:03.470Z,19.3
2017-06-04T02:32:03.454Z,19.2
2017-06-04T02:37:03.550Z,19.2
2017-06-04T02:42:02.782Z,19.0
2017-06-04T02:47:03.272Z,18.2
2017-06-04T02:52:03.373Z,18.0
2017-06-04T02:57:02.738Z,18.0
2017-06-04T03:02:10.582Z,17.9
2017-06-04T03:07:03.643Z,17.9
2017-06-04T03:12:03.402Z,17.9
2017-06-04T03:17:13.146Z,17.6
2017-06-04T03:22:03.707Z,17.6
2017-06-04T03:27:03.267Z,17.5
2017-06-04T03:32:12.996Z,17.5
2017-06-04T03:37:03.408Z,17.5
2017-06-04T03:42:02.701Z,17.5
2017-06-04T03:47:17.486Z,17.4
2017-06-04T03:52:02.714Z,17.5
2017-06-04T03:57:03.466Z,17.4
2017-06-04T04:02:17.406Z,17.4
2017-06-04T04:07:03.218Z,17.3
2017-06-04T04:12:03.053Z,17.3
2017-06-04T04:17:18.117Z,17.3
2017-06-04T04:22:03.187Z,17.2
2017-06-04T04:27:03.668Z,17.3
2017-06-04T04:32:17.394Z,17.3
2017-06-04T04:37:03.380Z,17.1
2017-06-04T04:42:02.790Z,17.1
2017-06-04T04:47:14.670Z,16.9
2017-06-04T04:52:03.522Z,16.8
2017-06-04T04:57:02.917Z,16.9
2017-06-04T05:07:03.394Z,17.0
2017-06-04T05:12:02.915Z,17.0
2017-06-04T05:17:13.812Z,16.9
2017-06-04T05:22:02.694Z,16.9
2017-06-04T05:27:03.152Z,16.9
2017-06-04T05:32:17.950Z,17.0
2017-06-04T05:37:03.351Z,17.2
2017-06-04T05:42:02.742Z,17.4
2017-06-04T05:47:17.120Z,17.3
2017-06-04T05:52:02.998Z,17.7
2017-06-04T05:57:03.394Z,17.7
2017-06-04T06:02:13.123Z,17.9
2017-06-04T06:07:03.329Z,17.9
2017-06-04T06:12:02.794Z,17.9
2017-06-04T06:17:13.998Z,18.0
2017-06-04T06:22:03.248Z,17.9
2017-06-04T06:27:03.563Z,18.1
2017-06-04T06:32:13.190Z,18.1
2017-06-04T06:37:03.269Z,18.4
2017-06-04T06:42:02.680Z,18.6
2017-06-04T06:47:13.818Z,18.5
2017-06-04T06:52:03.508Z,18.8
2017-06-04T06:57:02.859Z,19.3
2017-06-04T07:02:13.520Z,19.7
2017-06-04T07:07:03.409Z,19.7
2017-06-04T07:12:02.997Z,20.2
2017-06-04T07:22:03.427Z,20.0
2017-06-04T07:27:02.874Z,20.0
2017-06-04T07:32:17.676Z,19.7
2017-06-04T07:37:02.692Z,19.6
2017-06-04T07:42:03.537Z,20.0
2017-06-04T07:47:17.572Z,20.3
2017-06-04T07:52:03.438Z,20.6
2017-06-04T07:57:02.892Z,20.5
2017-06-04T08:02:13.940Z,20.9
2017-06-04T08:07:03.324Z,20.8
2017-06-04T08:12:02.798Z,20.9
2017-06-04T08:17:18.053Z,20.9
2017-06-04T08:22:03.101Z,21.1
2017-06-04T08:27:03.179Z,21.5
2017-06-04T08:32:17.933Z,21.6
2017-06-04T08:37:03.269Z,21.6
2017-06-04T08:42:03.517Z,21.4
2017-06-04T08:47:13.266Z,21.0
2017-06-04T08:52:02.990Z,20.7
2017-06-04T08:57:03.369Z,20.3
2017-06-04T09:07:03.294Z,20.0
2017-06-04T09:12:02.772Z,20.0
2017-06-04T09:17:13.592Z,20.9
2017-06-04T09:22:03.637Z,21.9
2017-06-04T09:27:03.090Z,22.4
2017-06-04T09:32:13.642Z,22.2
2017-06-04T09:37:02.913Z,22.2
2017-06-04T09:42:03.115Z,22.5
2017-06-04T09:47:23.231Z,22.8
2017-06-04T09:52:03.365Z,23.1
2017-06-04T09:57:02.797Z,23.3
2017-06-04T10:02:13.772Z,23.0
2017-06-04T10:07:03.347Z,22.6
2017-06-04T10:12:02.975Z,22.6
2017-06-04T10:17:23.641Z,22.3
2017-06-04T10:22:02.688Z,22.3
2017-06-04T10:27:03.133Z,22.0
2017-06-04T10:32:13.106Z,22.1
2017-06-04T10:37:03.521Z,22.4
2017-06-04T10:42:03.175Z,22.4
2017-06-04T10:47:16.195Z,22.2
2017-06-04T10:52:03.114Z,22.3
2017-06-04T10:57:02.729Z,22.3
2017-06-04T11:02:13.549Z,22.4
2017-06-04T11:07:02.815Z,22.6
2017-06-04T11:12:03.437Z,22.6
2017-06-04T11:17:13.447Z,22.6
2017-06-04T11:22:03.537Z,22.5
2017-06-04T11:27:02.747Z,22.5
2017-06-04T11:32:16.851Z,22.4
2017-06-04T11:37:03.124Z,22.2
2017-06-04T11:42:03.115Z,22.0
2017-06-04T11:47:13.256Z,22.2
2017-06-04T11:52:03.102Z,22.2
2017-06-04T11:57:02.781Z,22.4
2017-06-04T12:02:16.870Z,22.5
2017-06-04T12:07:03.156Z,22.7
2017-06-04T12:12:02.708Z,22.7
2017-06-04T12:17:13.165Z,22.7
2017-06-04T12:22:03.106Z,22.8
2017-06-04T12:27:03.421Z,22.8
2017-06-04T12:32:13.289Z,23.1
2017-06-04T12:37:03.531Z,23.2
2017-06-04T12:42:02.909Z,23.4
2017-06-04T12:47:16.826Z,23.5
2017-06-04T12:52:02.817Z,23.7
2017-06-04T12:57:03.251Z,23.7
2017-06-04T13:02:16.310Z,23.8
2017-06-04T13:07:03.326Z,23.8
2017-06-04T13:12:02.949Z,24.0
2017-06-04T13:17:13.828Z,24.6
2017-06-04T13:22:03.104Z,24.6
2017-06-04T13:27:03.462Z,24.6
2017-06-04T13:32:13.756Z,24.9
2017-06-04T13:37:03.537Z,25.1
2017-06-04T13:42:02.870Z,25.3
2017-06-04T13:47:13.774Z,25.6
2017-06-04T13:52:02.982Z,25.4
2017-06-04T13:57:03.465Z,26.2
2017-06-04T14:02:17.054Z,27.4
2017-06-04T14:07:03.463Z,27.3
2017-06-04T14:12:03.430Z,27.3
2017-06-04T14:17:16.761Z,28.0
2017-06-04T14:22:03.488Z,28.5
2017-06-04T14:27:02.893Z,28.4
2017-06-04T14:32:13.534Z,29.4
2017-06-04T14:37:02.747Z,30.4
2017-06-04T14:42:03.213Z,30.4
2017-06-04T14:52:03.003Z,35.2
2017-06-04T14:57:03.349Z,37.0
2017-06-04T15:07:03.290Z,39.9
2017-06-04T15:12:02.673Z,39.9
2017-06-04T15:17:13.803Z,42.2
2017-06-04T15:22:03.608Z,42.2
2017-06-04T15:27:02.958Z,42.1
2017-06-04T15:32:13.748Z,42.1
2017-06-04T15:37:03.173Z,42.1
2017-06-04T15:42:03.477Z,42.3
2017-06-04T15:47:13.255Z,40.3
2017-06-04T15:52:03.153Z,39.6
2017-06-04T15:57:03.447Z,40.9
2017-06-04T16:02:13.064Z,41.9
2017-06-04T16:07:03.217Z,42.0
2017-06-04T16:12:03.969Z,42.1
2017-06-04T16:17:04.098Z,44.3
2017-06-04T16:22:04.339Z,46.0
2017-06-04T16:27:03.592Z,46.3
2017-06-04T16:32:17.655Z,46.3
2017-06-04T16:37:03.405Z,46.3
2017-06-04T16:42:02.711Z,45.6
2017-06-04T16:47:11.878Z,45.2
2017-06-04T16:52:02.833Z,41.8
2017-06-04T16:57:03.106Z,41.7
2017-06-04T17:02:17.695Z,39.5
2017-06-04T17:07:03.135Z,37.7
2017-06-04T17:12:03.485Z,36.5
2017-06-04T17:17:17.493Z,36.5
2017-06-04T17:22:03.614Z,36.5
2017-06-04T17:27:02.889Z,37.2
2017-06-04T17:32:16.209Z,39.5
2017-06-04T17:37:02.756Z,39.4
2017-06-04T17:42:03.062Z,37.2
2017-06-04T17:47:17.975Z,29.0
2017-06-04T17:52:03.204Z,29.1
2017-06-04T17:57:02.686Z,28.5
2017-06-04T18:02:14.493Z,27.6
2017-06-04T18:07:02.883Z,27.5
2017-06-04T18:12:03.172Z,30.8
2017-06-04T18:17:13.605Z,29.8
2017-06-04T18:22:02.786Z,24.3
2017-06-04T18:27:03.212Z,24.2
2017-06-04T18:32:13.965Z,23.2
2017-06-04T18:37:03.442Z,22.4
2017-06-04T18:42:02.763Z,21.3
2017-06-04T18:47:13.560Z,21.0
2017-06-04T18:52:03.016Z,20.7
2017-06-04T18:57:03.364Z,20.4
2017-06-04T19:02:13.051Z,20.1
2017-06-04T19:07:03.379Z,19.7
2017-06-04T19:12:02.781Z,19.4
2017-06-04T19:17:13.872Z,19.3
2017-06-04T19:22:02.803Z,19.1
2017-06-04T19:27:03.349Z,18.9
2017-06-04T19:32:13.410Z,18.6
2017-06-04T19:37:03.118Z,18.5
2017-06-04T19:42:03.362Z,18.3
2017-06-04T19:47:14.160Z,18.1
2017-06-04T19:52:02.967Z,17.9
2017-06-04T19:57:03.388Z,17.9
2017-06-04T20:02:14.377Z,17.6
2017-06-04T20:07:03.015Z,17.5
2017-06-04T20:12:03.499Z,17.5
2017-06-04T20:17:08.367Z,17.1
2017-06-04T20:22:03.326Z,17.0
2017-06-04T20:27:03.634Z,17.0
2017-06-04T20:32:06.330Z,16.8
2017-06-04T20:37:03.133Z,16.7
2017-06-04T20:42:03.317Z,16.4
2017-06-04T20:47:03.916Z,16.4
2017-06-04T20:52:02.939Z,16.3
2017-06-04T20:57:03.215Z,16.2
2017-06-04T21:02:03.541Z,15.7
2017-06-04T21:07:02.875Z,15.6
2017-06-04T21:12:03.403Z,15.5
2017-06-04T21:17:03.304Z,15.2
2017-06-04T21:22:03.324Z,15.2
2017-06-04T21:27:03.546Z,14.9
2017-06-04T21:32:02.851Z,14.7
2017-06-04T21:37:03.134Z,14.7
2017-06-04T21:42:03.358Z,14.5
2017-06-04T21:47:03.651Z,14.4
2017-06-04T21:52:02.985Z,14.4
2017-06-04T21:57:03.308Z,14.4
2017-06-04T22:02:03.722Z,14.4
2017-06-04T22:07:03.139Z,14.2
2017-06-04T22:12:03.392Z,14.2
2017-06-04T22:22:03.485Z,13.9
2017-06-04T22:27:03.628Z,13.8
2017-06-04T22:32:03.246Z,13.7
2017-06-04T22:37:03.395Z,13.8
2017-06-04T22:42:02.837Z,13.8
2017-06-04T22:47:02.765Z,13.7
2017-06-04T22:52:02.942Z,13.7
2017-06-04T22:57:03.143Z,13.7
2017-06-04T23:02:03.156Z,13.5
2017-06-04T23:07:02.802Z,13.4
2017-06-04T23:12:03.572Z,13.2
2017-06-04T23:17:03.477Z,13.2
2017-06-04T23:22:02.983Z,13.2
2017-06-04T23:27:03.631Z,13.4
2017-06-04T23:32:03.486Z,13.6
2017-06-04T23:37:03.191Z,13.6
2017-06-04T23:42:02.788Z,13.7
2017-06-04T23:47:03.555Z,13.7
2017-06-04T23:52:03.562Z,13.7
2017-06-04T23:57:03.322Z,13.6
